Time,TemperatureF,DewpointF,PressureIn,WindDirection,WindDirectionDegrees,WindSpeedMPH,WindSpeedGustMPH,Humidity,HourlyPrecipIn,Conditions,Clouds,dailyrainin,SoftwareType,DateUTC
2013-05-22 00:00:00,65.8,36.7,29.55,NE,54,0.0,0.0,34,0.00,,---,0.00,VWS V14.01,2013-05-22 04:00:00,
2013-05-22 00:01:00,65.8,36.7,29.55,ENE,64,0.0,0.0,34,0.00,,---,0.00,VWS V14.01,2013-05-22 04:01:00,
2013-05-22 00:06:00,65.8,36.7,29.55,ENE,64,0.0,0.0,34,0.00,,---,0.00,VWS V14.01,2013-05-22 04:06:00,
2013-05-22 00:11:00,66.0,36.9,29.55,ENE,64,0.0,0.0,34,0.00,,---,0.00,VWS V14.01,2013-05-22 04:11:00,
2013-05-22 00:16:00,66.0,36.9,29.55,ENE,64,0.0,0.0,34,0.00,,---,0.00,VWS V14.01,2013-05-22 04:16:00,
2013-05-22 00:21:00,66.0,36.9,29.55,ENE,64,0.0,0.0,34,0.00,,---,0.00,VWS V14.01,2013-05-22 04:21:00,
2013-05-22 00:26:00,66.0,36.9,29.55,ENE,64,0.0,0.0,34,0.00,,---,0.00,VWS V14.01,2013-05-22 04:26:00,
2013-05-22 00:31:00,66.0,36.9,29.55,ENE,64,0.0,0.0,34,0.00,,---,0.00,VWS V14.01,2013-05-22 04:31:00,
2013-05-22 00:36:00,66.0,36.9,29.55,ENE,64,0.0,0.0,34,0.00,,---,0.00,VWS V14.01,2013-05-22 04:36:00,
2013-05-22 00:41:00,66.4,37.2,29.58,WSW,243,3.6,3.6,34,0.00,,---,0.00,VWS V14.01,2013-05-22 04:41:00,
2013-05-22 00:46:00,67.8,38.5,29.58,SSW,194,4.0,4.0,34,0.00,,---,0.00,VWS V14.01,2013-05-22 04:46:00,
2013-05-22 00:51:00,68.5,38.3,29.58,South,188,0.0,2.7,33,0.00,,---,0.00,VWS V14.01,2013-05-22 04:51:00,
2013-05-22 00:56:00,68.5,38.3,29.55,West,276,5.4,5.4,33,0.00,,---,0.00,VWS V14.01,2013-05-22 04:56:00,
2013-05-22 01:01:00,68.4,38.2,29.55,SW,234,2.2,3.6,33,0.00,,---,0.00,VWS V14.01,2013-05-22 05:01:00,
2013-05-22 01:06:00,68.2,38.0,29.55,NE,38,2.7,3.6,33,0.00,,---,0.00,VWS V14.01,2013-05-22 05:06:00,
2013-05-22 01:11:00,68.0,37.8,29.55,WSW,241,2.7,3.1,33,0.00,,---,0.00,VWS V14.01,2013-05-22 05:11:00,
2013-05-22 01:16:00,67.8,37.7,29.55,South,169,2.2,2.7,33,0.00,,---,0.00,VWS V14.01,2013-05-22 05:16:00,
2013-05-22 01:21:00,67.6,37.5,29.55,West,261,0.0,0.0,33,0.00,,---,0.00,VWS V14.01,2013-05-22 05:21:00,
2013-05-22 01:26:00,67.5,37.4,29.55,WSW,258,0.0,0.0,33,0.00,,---,0.00,VWS V14.01,2013-05-22 05:26:00,
2013-05-22 01:31:00,67.1,37.1,29.55,WNW,293,0.0,0.0,33,0.00,,---,0.00,VWS V14.01,2013-05-22 05:31:00,
2013-05-22 01:36:00,66.9,36.9,29.55,WSW,251,2.7,2.7,33,0.00,,---,0.00,VWS V14.01,2013-05-22 05:36:00,
2013-05-22 01:41:00,66.9,36.9,29.58,West,274,3.6,3.6,33,0.00,,---,0.00,VWS V14.01,2013-05-22 05:41:00,
2013-05-22 01:46:00,66.7,36.8,29.58,NW,320,0.0,0.0,33,0.00,,---,0.00,VWS V14.01,2013-05-22 05:46:00,
2013-05-22 01:51:00,66.6,36.6,29.58,SW,216,2.2,2.7,33,0.00,,---,0.00,VWS V14.01,2013-05-22 05:51:00,
2013-05-22 01:56:00,66.4,36.4,29.55,WSW,247,0.0,2.7,33,0.00,,---,0.00,VWS V14.01,2013-05-22 05:56:00,
2013-05-22 02:01:00,66.2,36.3,29.55,West,271,2.2,2.2,33,0.00,,---,0.00,VWS V14.01,2013-05-22 06:01:00,
2013-05-22 02:06:00,66.0,36.1,29.55,WNW,291,0.0,0.0,33,0.00,,---,0.00,VWS V14.01,2013-05-22 06:06:00,
2013-05-22 02:11:00,65.8,36.0,29.55,WSW,241,0.0,0.0,33,0.00,,---,0.00,VWS V14.01,2013-05-22 06:11:00,
2013-05-22 02:16:00,65.7,35.8,29.55,SSW,207,2.7,2.7,33,0.00,,---,0.00,VWS V14.01,2013-05-22 06:16:00,
2013-05-22 02:21:00,65.5,35.6,29.55,West,267,0.0,0.0,33,0.00,,---,0.00,VWS V14.01,2013-05-22 06:21:00,
2013-05-22 02:26:00,65.3,35.5,29.55,NW,312,0.0,0.0,33,0.00,,---,0.00,VWS V14.01,2013-05-22 06:26:00,
2013-05-22 02:31:00,65.1,35.3,29.55,NW,315,0.0,0.0,33,0.00,,---,0.00,VWS V14.01,2013-05-22 06:31:00,
2013-05-22 02:36:00,64.9,35.9,29.55,West,261,0.0,0.0,34,0.00,,---,0.00,VWS V14.01,2013-05-22 06:36:00,
2013-05-22 02:41:00,64.8,35.8,29.55,West,261,0.0,0.0,34,0.00,,---,0.00,VWS V14.01,2013-05-22 06:41:00,
2013-05-22 02:46:00,64.8,35.8,29.55,SSE,165,0.0,0.0,34,0.00,,---,0.00,VWS V14.01,2013-05-22 06:46:00,
2013-05-22 02:51:00,64.8,35.8,29.55,NNW,332,0.0,0.0,34,0.00,,---,0.00,VWS V14.01,2013-05-22 06:51:00,
2013-05-22 02:56:00,64.8,35.8,29.58,West,274,0.0,0.0,34,0.00,,---,0.00,VWS V14.01,2013-05-22 06:56:00,
2013-05-22 03:01:00,64.6,35.6,29.58,West,274,0.0,0.0,34,0.00,,---,0.00,VWS V14.01,2013-05-22 07:01:00,
2013-05-22 03:06:00,64.6,35.6,29.58,WSW,242,0.0,0.0,34,0.00,,---,0.00,VWS V14.01,2013-05-22 07:06:00,
2013-05-22 03:11:00,64.4,35.5,29.58,WSW,243,0.0,0.0,34,0.00,,---,0.00,VWS V14.01,2013-05-22 07:11:00,
2013-05-22 03:16:00,64.4,35.5,29.58,WSW,241,0.0,0.0,34,0.00,,---,0.00,VWS V14.01,2013-05-22 07:16:00,
2013-05-22 03:21:00,64.4,35.5,29.58,West,263,0.0,0.0,34,0.00,,---,0.00,VWS V14.01,2013-05-22 07:21:00,
2013-05-22 03:26:00,64.4,35.5,29.58,WNW,283,3.1,3.1,34,0.00,,---,0.00,VWS V14.01,2013-05-22 07:26:00,
2013-05-22 03:31:00,64.6,35.6,29.58,West,268,0.0,0.0,34,0.00,,---,0.00,VWS V14.01,2013-05-22 07:31:00,
2013-05-22 03:36:00,64.6,35.6,29.58,WSW,255,0.0,0.0,34,0.00,,---,0.00,VWS V14.01,2013-05-22 07:36:00,
2013-05-22 03:41:00,64.6,35.6,29.58,NE,46,0.0,0.0,34,0.00,,---,0.00,VWS V14.01,2013-05-22 07:41:00,
2013-05-22 03:46:00,64.6,35.6,29.58,NW,315,0.0,0.0,34,0.00,,---,0.00,VWS V14.01,2013-05-22 07:46:00,
2013-05-22 03:51:00,64.8,35.8,29.58,West,268,0.0,0.0,34,0.00,,---,0.00,VWS V14.01,2013-05-22 07:51:00,
2013-05-22 03:56:00,64.8,35.8,29.58,WSW,258,0.0,2.7,34,0.00,,---,0.00,VWS V14.01,2013-05-22 07:56:00,
2013-05-22 04:01:00,64.8,35.8,29.58,SW,232,0.0,0.0,34,0.00,,---,0.00,VWS V14.01,2013-05-22 08:01:00,
2013-05-22 04:06:00,64.9,35.9,29.58,West,268,0.0,0.0,34,0.00,,---,0.00,VWS V14.01,2013-05-22 08:06:00,
2013-05-22 04:11:00,65.1,36.1,29.61,West,263,0.0,0.0,34,0.00,,---,0.00,VWS V14.01,2013-05-22 08:11:00,
2013-05-22 04:16:00,65.1,36.1,29.61,NW,307,0.0,0.0,34,0.00,,---,0.00,VWS V14.01,2013-05-22 08:16:00,
2013-05-22 04:21:00,64.9,35.9,29.61,WSW,254,0.0,0.0,34,0.00,,---,0.00,VWS V14.01,2013-05-22 08:21:00,
2013-05-22 04:26:00,64.9,35.9,29.61,NW,305,0.0,0.0,34,0.00,,---,0.00,VWS V14.01,2013-05-22 08:26:00,
2013-05-22 04:31:00,64.8,35.8,29.61,NW,305,0.0,0.0,34,0.00,,---,0.00,VWS V14.01,2013-05-22 08:31:00,
2013-05-22 04:36:00,64.8,35.8,29.61,NW,305,0.0,0.0,34,0.00,,---,0.00,VWS V14.01,2013-05-22 08:36:00,
2013-05-22 04:41:00,64.6,35.6,29.64,West,271,0.0,0.0,34,0.00,,---,0.00,VWS V14.01,2013-05-22 08:41:00,
2013-05-22 04:46:00,64.8,35.8,29.64,WSW,246,0.0,0.0,34,0.00,,---,0.00,VWS V14.01,2013-05-22 08:46:00,
2013-05-22 04:51:00,64.8,35.0,29.64,NNE,20,0.0,0.0,33,0.00,,---,0.00,VWS V14.01,2013-05-22 08:51:00,
2013-05-22 04:56:00,64.9,35.2,29.64,WNW,283,0.0,0.0,33,0.00,,---,0.00,VWS V14.01,2013-05-22 08:56:00,
2013-05-22 05:01:00,64.9,35.2,29.64,SW,227,0.0,0.0,33,0.00,,---,0.00,VWS V14.01,2013-05-22 09:01:00,
2013-05-22 05:06:00,64.9,35.2,29.64,ENE,74,0.0,0.0,33,0.00,,---,0.00,VWS V14.01,2013-05-22 09:06:00,
2013-05-22 05:11:00,64.9,35.2,29.64,West,262,0.0,0.0,33,0.00,,---,0.00,VWS V14.01,2013-05-22 09:11:00,
2013-05-22 05:16:00,64.9,35.2,29.64,West,269,0.0,0.0,33,0.00,,---,0.00,VWS V14.01,2013-05-22 09:16:00,
2013-05-22 05:21:00,64.8,35.0,29.64,WSW,251,0.0,0.0,33,0.00,,---,0.00,VWS V14.01,2013-05-22 09:21:00,
2013-05-22 05:26:00,64.4,34.7,29.64,SSE,167,0.0,0.0,33,0.00,,---,0.00,VWS V14.01,2013-05-22 09:26:00,
2013-05-22 05:31:00,64.0,35.1,29.64,West,266,0.0,0.0,34,0.00,,---,0.00,VWS V14.01,2013-05-22 09:31:00,
2013-05-22 05:36:00,63.9,35.0,29.64,West,266,0.0,0.0,34,0.00,,---,0.00,VWS V14.01,2013-05-22 09:36:00,
2013-05-22 05:41:00,63.5,34.7,29.67,WSW,254,0.0,0.0,34,0.00,,---,0.00,VWS V14.01,2013-05-22 09:41:00,
2013-05-22 05:46:00,63.3,34.5,29.67,WNW,302,0.0,0.0,34,0.00,,---,0.00,VWS V14.01,2013-05-22 09:46:00,
2013-05-22 05:51:00,63.1,34.3,29.67,WNW,300,0.0,0.0,34,0.00,,---,0.00,VWS V14.01,2013-05-22 09:51:00,
2013-05-22 05:56:00,63.0,34.2,29.67,West,265,0.0,0.0,34,0.00,,---,0.00,VWS V14.01,2013-05-22 09:56:00,
2013-05-22 06:01:00,62.8,34.0,29.67,West,265,0.0,0.0,34,0.00,,---,0.00,VWS V14.01,2013-05-22 10:01:00,
2013-05-22 06:06:00,62.6,33.9,29.67,West,265,0.0,0.0,34,0.00,,---,0.00,VWS V14.01,2013-05-22 10:06:00,
2013-05-22 06:11:00,62.6,33.9,29.67,West,266,0.0,0.0,34,0.00,,---,0.00,VWS V14.01,2013-05-22 10:11:00,
2013-05-22 06:16:00,62.6,33.9,29.67,West,266,0.0,0.0,34,0.00,,---,0.00,VWS V14.01,2013-05-22 10:16:00,
2013-05-22 06:20:00,62.6,33.9,29.67,West,266,0.0,0.0,34,0.00,,---,0.00,VWS V14.01,2013-05-22 10:20:00,
2013-05-22 06:25:00,62.6,33.9,29.67,West,266,0.0,0.0,34,0.00,,---,0.00,VWS V14.01,2013-05-22 10:25:00,
2013-05-22 06:30:00,62.4,33.7,29.67,West,266,0.0,0.0,34,0.00,,---,0.00,VWS V14.01,2013-05-22 10:30:00,
2013-05-22 06:35:00,62.2,33.5,29.67,West,266,0.0,0.0,34,0.00,,---,0.00,VWS V14.01,2013-05-22 10:35:00,
2013-05-22 06:40:00,62.1,33.4,29.67,West,266,0.0,0.0,34,0.00,,---,0.00,VWS V14.01,2013-05-22 10:40:00,
2013-05-22 06:45:00,62.1,33.4,29.67,West,266,0.0,0.0,34,0.00,,---,0.00,VWS V14.01,2013-05-22 10:45:00,
2013-05-22 06:50:00,62.2,33.5,29.67,WSW,250,0.0,0.0,34,0.00,,---,0.00,VWS V14.01,2013-05-22 10:50:00,
2013-05-22 06:55:00,62.4,33.7,29.70,NW,308,0.0,0.0,34,0.00,,---,0.00,VWS V14.01,2013-05-22 10:55:00,
2013-05-22 07:00:00,62.6,33.9,29.70,NW,308,0.0,0.0,34,0.00,,---,0.00,VWS V14.01,2013-05-22 11:00:00,
2013-05-22 07:05:00,63.0,34.2,29.70,NW,308,0.0,0.0,34,0.00,,---,0.00,VWS V14.01,2013-05-22 11:05:00,
2013-05-22 07:10:00,63.0,34.2,29.70,West,263,0.0,0.0,34,0.00,,---,0.00,VWS V14.01,2013-05-22 11:10:00,
2013-05-22 07:15:00,63.1,34.3,29.70,West,264,0.0,2.7,34,0.00,,---,0.00,VWS V14.01,2013-05-22 11:15:00,
2013-05-22 07:20:00,63.5,34.7,29.70,West,264,0.0,0.0,34,0.00,,---,0.00,VWS V14.01,2013-05-22 11:20:00,
2013-05-22 07:25:00,63.9,35.0,29.70,SE,128,0.0,0.0,34,0.00,,---,0.00,VWS V14.01,2013-05-22 11:25:00,
2013-05-22 07:30:00,64.0,35.1,29.70,West,273,0.0,0.0,34,0.00,,---,0.00,VWS V14.01,2013-05-22 11:30:00,
2013-05-22 07:35:00,64.2,35.3,29.70,WNW,288,0.0,0.0,34,0.00,,---,0.00,VWS V14.01,2013-05-22 11:35:00,
2013-05-22 07:40:00,64.2,35.3,29.72,WNW,288,0.0,0.0,34,0.00,,---,0.00,VWS V14.01,2013-05-22 11:40:00,
2013-05-22 07:45:00,64.2,35.3,29.72,West,275,0.0,0.0,34,0.00,,---,0.00,VWS V14.01,2013-05-22 11:45:00,
2013-05-22 07:50:00,64.4,34.7,29.72,SW,231,2.2,2.7,33,0.00,,---,0.00,VWS V14.01,2013-05-22 11:50:00,
2013-05-22 07:55:00,64.8,35.0,29.72,WSW,254,0.0,0.0,33,0.00,,---,0.00,VWS V14.01,2013-05-22 11:55:00,
2013-05-22 08:00:00,64.6,34.8,29.72,SE,146,2.2,2.7,33,0.00,,---,0.00,VWS V14.01,2013-05-22 12:00:00,
2013-05-22 08:05:00,64.6,34.8,29.72,West,269,0.0,0.0,33,0.00,,---,0.00,VWS V14.01,2013-05-22 12:05:00,
2013-05-22 08:10:00,64.8,35.0,29.72,NNW,327,2.7,2.7,33,0.00,,---,0.00,VWS V14.01,2013-05-22 12:10:00,
2013-05-22 08:15:00,65.1,35.3,29.72,NW,322,0.0,0.0,33,0.00,,---,0.00,VWS V14.01,2013-05-22 12:15:00,
2013-05-22 08:20:00,65.1,35.3,29.72,NNW,329,0.0,0.0,33,0.00,,---,0.00,VWS V14.01,2013-05-22 12:20:00,
2013-05-22 08:25:00,65.3,35.5,29.72,WSW,239,0.0,0.0,33,0.00,,---,0.00,VWS V14.01,2013-05-22 12:25:00,
2013-05-22 08:30:00,65.7,35.8,29.72,West,264,0.0,0.0,33,0.00,,---,0.00,VWS V14.01,2013-05-22 12:30:00,
2013-05-22 08:35:00,65.8,36.0,29.72,West,262,0.0,0.0,33,0.00,,---,0.00,VWS V14.01,2013-05-22 12:35:00,
2013-05-22 08:40:00,66.2,36.3,29.72,WNW,301,0.0,0.0,33,0.00,,---,0.00,VWS V14.01,2013-05-22 12:40:00,
2013-05-22 08:45:00,66.6,36.6,29.72,West,261,0.0,0.0,33,0.00,,---,0.00,VWS V14.01,2013-05-22 12:45:00,
2013-05-22 08:50:00,66.7,36.8,29.72,WSW,251,0.0,0.0,33,0.00,,---,0.00,VWS V14.01,2013-05-22 12:50:00,
2013-05-22 08:55:00,67.1,37.1,29.72,SW,220,0.0,0.0,33,0.00,,---,0.00,VWS V14.01,2013-05-22 12:55:00,
2013-05-22 09:00:00,67.1,37.1,29.72,NNW,339,0.0,0.0,33,0.00,,---,0.00,VWS V14.01,2013-05-22 13:00:00,
2013-05-22 09:05:00,67.5,37.4,29.72,NE,39,0.0,0.0,33,0.00,,---,0.00,VWS V14.01,2013-05-22 13:05:00,
2013-05-22 09:10:00,67.8,37.7,29.75,SW,231,0.0,0.0,33,0.00,,---,0.00,VWS V14.01,2013-05-22 13:10:00,
2013-05-22 09:15:00,68.4,37.4,29.75,NW,314,3.6,3.6,32,0.00,,---,0.00,VWS V14.01,2013-05-22 13:15:00,
2013-05-22 09:20:00,68.9,37.8,29.75,West,276,0.0,0.0,32,0.00,,---,0.00,VWS V14.01,2013-05-22 13:20:00,
2013-05-22 09:25:00,69.6,38.5,29.72,WNW,285,0.0,0.0,32,0.00,,---,0.00,VWS V14.01,2013-05-22 13:25:00,
2013-05-22 09:30:00,70.0,38.8,29.72,ENE,67,2.2,2.7,32,0.00,,---,0.00,VWS V14.01,2013-05-22 13:30:00,
2013-05-22 09:35:00,70.0,38.8,29.72,NW,318,4.0,6.3,32,0.00,,---,0.00,VWS V14.01,2013-05-22 13:35:00,
2013-05-22 09:40:00,70.2,39.0,29.72,West,271,0.0,3.1,32,0.00,,---,0.00,VWS V14.01,2013-05-22 13:40:00,
2013-05-22 09:45:00,70.9,39.6,29.72,SW,227,2.7,2.7,32,0.00,,---,0.00,VWS V14.01,2013-05-22 13:45:00,
2013-05-22 09:50:00,71.8,40.4,29.72,SW,218,3.6,3.6,32,0.00,,---,0.00,VWS V14.01,2013-05-22 13:50:00,
2013-05-22 09:55:00,72.0,40.5,29.72,SSW,204,4.9,4.9,32,0.00,,---,0.00,VWS V14.01,2013-05-22 13:55:00,
2013-05-22 10:00:00,72.1,40.7,29.72,North,353,0.0,0.0,32,0.00,,---,0.00,VWS V14.01,2013-05-22 14:00:00,
2013-05-22 10:05:00,72.9,41.3,29.72,WNW,292,0.0,0.0,32,0.00,,---,0.00,VWS V14.01,2013-05-22 14:05:00,
2013-05-22 10:10:00,73.0,41.5,29.72,ESE,110,2.2,3.1,32,0.00,,---,0.00,VWS V14.01,2013-05-22 14:10:00,
2013-05-22 10:15:00,73.0,41.5,29.72,SSW,202,2.7,3.6,32,0.00,,---,0.00,VWS V14.01,2013-05-22 14:15:00,
2013-05-22 10:20:00,72.7,41.2,29.72,WSW,239,0.0,0.0,32,0.00,,---,0.00,VWS V14.01,2013-05-22 14:20:00,
2013-05-22 10:25:00,72.7,41.2,29.72,West,280,4.9,4.9,32,0.00,,---,0.00,VWS V14.01,2013-05-22 14:25:00,
2013-05-22 10:30:00,73.0,41.5,29.72,WNW,292,0.0,0.0,32,0.00,,---,0.00,VWS V14.01,2013-05-22 14:30:00,
2013-05-22 10:35:00,73.4,41.0,29.72,NW,306,0.0,0.0,31,0.00,,---,0.00,VWS V14.01,2013-05-22 14:35:00,
2013-05-22 10:40:00,73.6,41.1,29.70,SSW,204,0.0,0.0,31,0.00,,---,0.00,VWS V14.01,2013-05-22 14:40:00,
2013-05-22 10:45:00,73.2,41.6,29.70,WNW,294,0.0,3.1,32,0.00,,---,0.00,VWS V14.01,2013-05-22 14:45:00,
2013-05-22 10:50:00,73.0,41.5,29.70,West,263,0.0,4.0,32,0.00,,---,0.00,VWS V14.01,2013-05-22 14:50:00,
2013-05-22 10:55:00,73.2,41.6,29.72,SW,220,2.7,3.1,32,0.00,,---,0.00,VWS V14.01,2013-05-22 14:55:00,
2013-05-22 11:00:00,73.8,41.3,29.72,WSW,251,0.0,0.0,31,0.00,,---,0.00,VWS V14.01,2013-05-22 15:00:00,
2013-05-22 11:05:00,74.3,41.7,29.72,SW,219,0.0,0.0,31,0.00,,---,0.00,VWS V14.01,2013-05-22 15:05:00,
2013-05-22 11:10:00,74.5,41.9,29.70,SW,214,3.1,3.6,31,0.00,,---,0.00,VWS V14.01,2013-05-22 15:10:00,
2013-05-22 11:15:00,74.3,41.7,29.70,SSW,192,0.0,0.0,31,0.00,,---,0.00,VWS V14.01,2013-05-22 15:15:00,
2013-05-22 11:20:00,74.3,41.7,29.70,NE,47,2.7,3.6,31,0.00,,---,0.00,VWS V14.01,2013-05-22 15:20:00,
2013-05-22 11:25:00,74.5,41.9,29.70,North,4,0.0,0.0,31,0.00,,---,0.00,VWS V14.01,2013-05-22 15:25:00,
2013-05-22 11:30:00,74.8,42.2,29.70,WSW,255,0.0,0.0,31,0.00,,---,0.00,VWS V14.01,2013-05-22 15:30:00,
2013-05-22 11:35:00,75.2,42.5,29.70,West,280,2.7,3.1,31,0.00,,---,0.00,VWS V14.01,2013-05-22 15:35:00,
2013-05-22 11:40:00,75.7,43.0,29.70,SW,218,0.0,0.0,31,0.00,,---,0.00,VWS V14.01,2013-05-22 15:40:00,
2013-05-22 11:45:00,76.1,43.3,29.70,WSW,237,4.0,4.0,31,0.00,,---,0.00,VWS V14.01,2013-05-22 15:45:00,
2013-05-22 11:50:00,77.0,43.2,29.70,WSW,250,2.7,4.0,30,0.00,,---,0.00,VWS V14.01,2013-05-22 15:50:00,
2013-05-22 11:55:00,77.4,43.5,29.70,ESE,119,2.7,3.6,30,0.00,,---,0.00,VWS V14.01,2013-05-22 15:55:00,
2013-05-22 12:00:00,77.4,43.5,29.70,SW,225,3.6,3.6,30,0.00,,---,0.00,VWS V14.01,2013-05-22 16:00:00,
2013-05-22 12:05:00,77.2,43.4,29.70,North,3,3.1,3.1,30,0.00,,---,0.00,VWS V14.01,2013-05-22 16:05:00,
2013-05-22 12:10:00,78.1,44.2,29.70,South,188,0.0,0.0,30,0.00,,---,0.00,VWS V14.01,2013-05-22 16:10:00,
2013-05-22 12:15:00,78.6,44.6,29.70,ESE,108,4.9,4.9,30,0.00,,---,0.00,VWS V14.01,2013-05-22 16:15:00,
2013-05-22 12:20:00,79.7,45.6,29.70,ENE,59,4.9,4.9,30,0.00,,---,0.00,VWS V14.01,2013-05-22 16:20:00,
2013-05-22 12:25:00,79.3,45.2,29.67,ENE,75,2.7,3.1,30,0.00,,---,0.00,VWS V14.01,2013-05-22 16:25:00,
2013-05-22 12:30:00,79.7,45.6,29.67,WSW,255,0.0,3.6,30,0.00,,---,0.00,VWS V14.01,2013-05-22 16:30:00,
2013-05-22 12:35:00,79.9,45.7,29.67,West,266,0.0,0.0,30,0.00,,---,0.00,VWS V14.01,2013-05-22 16:35:00,
2013-05-22 12:40:00,79.7,45.6,29.67,NE,42,0.0,3.1,30,0.00,,---,0.00,VWS V14.01,2013-05-22 16:40:00,
2013-05-22 12:45:00,79.3,45.2,29.67,WSW,237,3.1,4.0,30,0.00,,---,0.00,VWS V14.01,2013-05-22 16:45:00,
2013-05-22 12:50:00,80.2,46.0,29.67,SW,220,3.6,3.6,30,0.00,,---,0.00,VWS V14.01,2013-05-22 16:50:00,
2013-05-22 12:55:00,81.3,47.0,29.67,West,266,2.7,3.1,30,0.00,,---,0.00,VWS V14.01,2013-05-22 16:55:00,
2013-05-22 13:00:00,82.4,47.0,29.67,SW,224,2.7,2.7,29,0.00,,---,0.00,VWS V14.01,2013-05-22 17:00:00,
2013-05-22 13:05:00,83.1,47.6,29.67,SSW,197,3.1,4.0,29,0.00,,---,0.00,VWS V14.01,2013-05-22 17:05:00,
2013-05-22 13:10:00,81.5,47.1,29.64,WNW,303,0.0,2.7,30,0.00,,---,0.00,VWS V14.01,2013-05-22 17:10:00,
2013-05-22 13:15:00,80.8,46.5,29.64,WSW,242,2.7,4.0,30,0.00,,---,0.00,VWS V14.01,2013-05-22 17:15:00,
2013-05-22 13:20:00,80.1,45.9,29.64,WSW,244,0.0,2.2,30,0.00,,---,0.00,VWS V14.01,2013-05-22 17:20:00,
2013-05-22 13:25:00,81.1,46.8,29.61,West,265,3.1,3.6,30,0.00,,---,0.00,VWS V14.01,2013-05-22 17:25:00,
2013-05-22 13:30:00,80.8,46.5,29.61,West,272,3.1,4.0,30,0.00,,---,0.00,VWS V14.01,2013-05-22 17:30:00,
2013-05-22 13:35:00,79.7,45.6,29.61,NE,36,2.7,3.6,30,0.00,,---,0.00,VWS V14.01,2013-05-22 17:35:00,
2013-05-22 13:40:00,79.0,44.9,29.61,NNE,32,0.0,0.0,30,0.00,,---,0.00,VWS V14.01,2013-05-22 17:40:00,
2013-05-22 13:45:00,80.4,46.2,29.61,North,11,0.0,2.2,30,0.00,,---,0.00,VWS V14.01,2013-05-22 17:45:00,
2013-05-22 13:50:00,81.5,47.1,29.61,North,353,4.0,4.0,30,0.00,,---,0.00,VWS V14.01,2013-05-22 17:50:00,
2013-05-22 13:55:00,81.9,47.4,29.61,West,277,0.0,0.0,30,0.00,,---,0.00,VWS V14.01,2013-05-22 17:55:00,
2013-05-22 14:00:00,83.3,47.8,29.58,South,173,6.3,6.3,29,0.00,,---,0.00,VWS V14.01,2013-05-22 18:00:00,
2013-05-22 14:05:00,84.6,48.8,29.58,NW,315,3.6,3.6,29,0.00,,---,0.00,VWS V14.01,2013-05-22 18:05:00,
2013-05-22 14:10:00,84.2,48.5,29.58,SSW,211,2.7,2.7,29,0.00,,---,0.00,VWS V14.01,2013-05-22 18:10:00,
2013-05-22 14:15:00,84.2,48.5,29.58,NNE,20,0.0,0.0,29,0.00,,---,0.00,VWS V14.01,2013-05-22 18:15:00,
2013-05-22 14:20:00,83.3,47.8,29.58,NNE,23,0.0,2.7,29,0.00,,---,0.00,VWS V14.01,2013-05-22 18:20:00,
2013-05-22 14:25:00,84.4,48.7,29.58,West,266,0.0,0.0,29,0.00,,---,0.00,VWS V14.01,2013-05-22 18:25:00,
2013-05-22 14:30:00,84.4,48.7,29.58,West,267,3.6,3.6,29,0.00,,---,0.00,VWS V14.01,2013-05-22 18:30:00,
2013-05-22 14:35:00,85.5,49.6,29.58,SSW,198,4.0,4.0,29,0.00,,---,0.00,VWS V14.01,2013-05-22 18:35:00,
2013-05-22 14:40:00,86.0,49.1,29.55,SSW,208,0.0,2.7,28,0.00,,---,0.00,VWS V14.01,2013-05-22 18:40:00,
2013-05-22 14:45:00,86.9,49.9,29.55,WSW,255,3.6,3.6,28,0.00,,---,0.00,VWS V14.01,2013-05-22 18:45:00,
2013-05-22 14:50:00,87.4,50.4,29.55,WSW,251,4.0,4.0,28,0.00,,---,0.00,VWS V14.01,2013-05-22 18:50:00,
2013-05-22 14:55:00,87.1,50.1,29.55,WSW,247,4.0,4.0,28,0.00,,---,0.00,VWS V14.01,2013-05-22 18:55:00,
2013-05-22 15:00:00,86.7,49.8,29.55,SSW,212,2.7,3.1,28,0.00,,---,0.00,VWS V14.01,2013-05-22 19:00:00,
2013-05-22 15:05:00,86.4,49.4,29.55,West,262,4.9,4.9,28,0.00,,---,0.00,VWS V14.01,2013-05-22 19:05:00,
2013-05-22 15:10:00,88.5,51.3,29.52,ESE,111,2.2,3.1,28,0.00,,---,0.00,VWS V14.01,2013-05-22 19:10:00,
2013-05-22 15:15:00,89.2,51.9,29.52,WNW,289,3.6,3.6,28,0.00,,---,0.00,VWS V14.01,2013-05-22 19:15:00,
2013-05-22 15:20:00,86.7,49.8,29.52,West,278,3.1,4.0,28,0.00,,---,0.00,VWS V14.01,2013-05-22 19:20:00,
2013-05-22 15:25:00,86.4,49.4,29.52,NW,324,4.0,4.0,28,0.00,,---,0.00,VWS V14.01,2013-05-22 19:25:00,
2013-05-22 15:30:00,86.4,49.4,29.52,WNW,288,3.1,5.8,28,0.00,,---,0.00,VWS V14.01,2013-05-22 19:30:00,
2013-05-22 15:35:00,84.2,48.5,29.52,SW,227,2.7,4.9,29,0.00,,---,0.00,VWS V14.01,2013-05-22 19:35:00,
2013-05-22 15:40:00,82.9,47.5,29.52,SW,229,0.0,0.0,29,0.00,,---,0.00,VWS V14.01,2013-05-22 19:40:00,
2013-05-22 15:45:00,82.0,47.6,29.52,South,191,0.0,0.0,30,0.00,,---,0.00,VWS V14.01,2013-05-22 19:45:00,
2013-05-22 15:50:00,80.6,46.3,29.52,West,268,2.7,5.4,30,0.00,,---,0.00,VWS V14.01,2013-05-22 19:50:00,
2013-05-22 15:55:00,79.2,45.1,29.52,North,353,2.2,3.1,30,0.00,,---,0.00,VWS V14.01,2013-05-22 19:55:00,
2013-05-22 16:00:00,77.2,43.4,29.52,WSW,239,4.0,5.8,30,0.00,,---,0.00,VWS V14.01,2013-05-22 20:00:00,
2013-05-22 16:05:00,74.3,41.7,29.52,WNW,282,3.6,3.6,31,0.00,,---,0.00,VWS V14.01,2013-05-22 20:05:00,
2013-05-22 16:10:00,74.5,41.9,29.52,WSW,253,3.1,3.6,31,0.00,,---,0.00,VWS V14.01,2013-05-22 20:10:00,
2013-05-22 16:15:00,75.0,42.4,29.52,North,357,0.0,0.0,31,0.00,,---,0.00,VWS V14.01,2013-05-22 20:15:00,
2013-05-22 16:20:00,74.3,41.7,29.52,NW,322,0.0,0.0,31,0.00,,---,0.00,VWS V14.01,2013-05-22 20:20:00,
2013-05-22 16:25:00,73.2,41.6,29.52,WSW,255,2.7,2.7,32,0.00,,---,0.00,VWS V14.01,2013-05-22 20:25:00,
2013-05-22 16:30:00,72.1,40.7,29.55,NNE,32,3.6,5.4,32,0.00,,---,0.00,VWS V14.01,2013-05-22 20:30:00,
2013-05-22 16:35:00,68.4,37.4,29.55,NE,48,3.1,3.1,32,0.00,,---,0.00,VWS V14.01,2013-05-22 20:35:00,
2013-05-22 16:40:00,66.4,36.4,29.58,SSW,200,3.6,3.6,33,0.00,,---,0.00,VWS V14.01,2013-05-22 20:40:00,
2013-05-22 16:45:00,65.5,36.4,29.58,NNE,15,0.0,4.9,34,0.00,,---,0.00,VWS V14.01,2013-05-22 20:45:00,
2013-05-22 16:50:00,64.8,35.8,29.58,NW,316,4.9,4.9,34,0.00,,---,0.00,VWS V14.01,2013-05-22 20:50:00,
2013-05-22 16:55:00,64.6,35.6,29.55,SW,222,0.0,0.0,34,0.00,,---,0.00,VWS V14.01,2013-05-22 20:55:00,
2013-05-22 17:00:00,63.9,35.0,29.55,North,2,0.0,0.0,34,0.00,,---,0.00,VWS V14.01,2013-05-22 21:00:00,
2013-05-22 17:05:00,63.5,34.7,29.55,North,357,0.0,0.0,34,0.00,,---,0.00,VWS V14.01,2013-05-22 21:05:00,
2013-05-22 17:10:00,63.5,34.7,29.55,NNE,22,0.0,0.0,34,0.00,,---,0.00,VWS V14.01,2013-05-22 21:10:00,
2013-05-22 17:15:00,64.2,35.3,29.55,South,176,0.0,0.0,34,0.00,,---,0.00,VWS V14.01,2013-05-22 21:15:00,
2013-05-22 17:20:00,64.8,35.0,29.55,SSW,197,0.0,0.0,33,0.00,,---,0.00,VWS V14.01,2013-05-22 21:20:00,
2013-05-22 17:25:00,65.5,35.6,29.55,WNW,286,0.0,0.0,33,0.00,,---,0.00,VWS V14.01,2013-05-22 21:25:00,
2013-05-22 17:30:00,65.7,35.8,29.55,North,0,0.0,0.0,33,0.00,,---,0.00,VWS V14.01,2013-05-22 21:30:00,
2013-05-22 17:35:00,66.0,36.1,29.55,North,0,0.0,0.0,33,0.00,,---,0.00,VWS V14.01,2013-05-22 21:35:00,
2013-05-22 17:40:00,68.4,38.2,29.52,NE,41,0.0,0.0,33,0.00,,---,0.00,VWS V14.01,2013-05-22 21:40:00,
2013-05-22 17:45:00,71.2,39.9,29.52,NE,40,0.0,0.0,32,0.00,,---,0.00,VWS V14.01,2013-05-22 21:45:00,
2013-05-22 17:50:00,71.1,39.7,29.52,NW,321,0.0,0.0,32,0.00,,---,0.00,VWS V14.01,2013-05-22 21:50:00,
2013-05-22 17:55:00,71.6,40.2,29.52,NW,321,0.0,0.0,32,0.00,,---,0.00,VWS V14.01,2013-05-22 21:55:00,
2013-05-22 18:00:00,71.4,40.0,29.55,NW,321,0.0,0.0,32,0.00,,---,0.00,VWS V14.01,2013-05-22 22:00:00,
2013-05-22 18:05:00,70.5,39.3,29.55,North,357,0.0,0.0,32,0.00,,---,0.00,VWS V14.01,2013-05-22 22:05:00,
2013-05-22 18:10:00,69.3,38.2,29.55,North,353,0.0,0.0,32,0.00,,---,0.00,VWS V14.01,2013-05-22 22:10:00,
2013-05-22 18:15:00,68.2,37.2,29.55,ENE,77,3.1,3.1,32,0.00,,---,0.00,VWS V14.01,2013-05-22 22:15:00,
2013-05-22 18:20:00,67.6,37.5,29.55,NW,319,0.0,0.0,33,0.00,,---,0.00,VWS V14.01,2013-05-22 22:20:00,
2013-05-22 18:25:00,67.1,37.1,29.55,NNE,32,3.6,3.6,33,0.00,,---,0.00,VWS V14.01,2013-05-22 22:25:00,
2013-05-22 18:30:00,67.1,37.1,29.55,NW,323,0.0,0.0,33,0.00,,---,0.00,VWS V14.01,2013-05-22 22:30:00,
2013-05-22 18:35:00,67.1,37.1,29.55,ENE,68,0.0,0.0,33,0.00,,---,0.00,VWS V14.01,2013-05-22 22:35:00,
2013-05-22 18:40:00,66.4,36.4,29.55,NE,36,0.0,0.0,33,0.00,,---,0.00,VWS V14.01,2013-05-22 22:40:00,
2013-05-22 18:45:00,64.8,35.0,29.55,NE,38,3.6,3.6,33,0.00,,---,0.00,VWS V14.01,2013-05-22 22:45:00,
2013-05-22 18:50:00,64.2,35.3,29.55,NE,45,4.0,4.0,34,0.00,,---,0.00,VWS V14.01,2013-05-22 22:50:00,
2013-05-22 18:55:00,63.7,34.8,29.55,NE,44,0.0,0.0,34,0.00,,---,0.00,VWS V14.01,2013-05-22 22:55:00,
2013-05-22 19:00:00,63.7,34.8,29.55,NE,37,0.0,0.0,34,0.00,,---,0.00,VWS V14.01,2013-05-22 23:00:00,
2013-05-22 19:05:00,63.9,35.0,29.55,NE,38,0.0,0.0,34,0.00,,---,0.00,VWS V14.01,2013-05-22 23:05:00,
2013-05-22 19:10:00,64.2,35.3,29.58,WSW,250,0.0,0.0,34,0.00,,---,0.00,VWS V14.01,2013-05-22 23:10:00,
2013-05-22 19:15:00,63.5,34.7,29.58,SW,235,2.7,2.7,34,0.00,,---,0.00,VWS V14.01,2013-05-22 23:15:00,
2013-05-22 19:20:00,63.5,34.7,29.58,NE,41,0.0,0.0,34,0.00,,---,0.00,VWS V14.01,2013-05-22 23:20:00,
2013-05-22 19:25:00,64.0,35.1,29.61,WSW,248,0.0,0.0,34,0.00,,---,0.00,VWS V14.01,2013-05-22 23:25:00,
2013-05-22 19:30:00,64.4,35.5,29.61,West,270,0.0,0.0,34,0.00,,---,0.00,VWS V14.01,2013-05-22 23:30:00,
2013-05-22 19:35:00,64.2,35.3,29.61,WNW,301,4.0,4.0,34,0.00,,---,0.00,VWS V14.01,2013-05-22 23:35:00,
2013-05-22 19:40:00,63.7,34.8,29.61,West,272,0.0,0.0,34,0.00,,---,0.00,VWS V14.01,2013-05-22 23:40:00,
2013-05-22 19:45:00,63.1,34.3,29.61,South,186,0.0,0.0,34,0.04,,---,0.04,VWS V14.01,2013-05-22 23:45:00,
2013-05-22 19:50:00,63.0,34.2,29.61,SSW,208,0.0,0.0,34,0.04,,---,0.04,VWS V14.01,2013-05-22 23:50:00,
2013-05-22 19:55:00,62.8,34.0,29.61,NE,51,0.0,0.0,34,0.04,,---,0.04,VWS V14.01,2013-05-22 23:55:00,
2013-05-22 20:00:00,62.4,34.4,29.61,WSW,243,0.0,0.0,35,0.04,,---,0.04,VWS V14.01,2013-05-23 00:00:00,
2013-05-22 20:05:00,62.2,34.3,29.61,SSW,196,0.0,0.0,35,0.04,,---,0.04,VWS V14.01,2013-05-23 00:05:00,
2013-05-22 20:10:00,62.2,34.3,29.64,SSE,155,0.0,0.0,35,0.04,,---,0.04,VWS V14.01,2013-05-23 00:10:00,
2013-05-22 20:15:00,62.2,34.3,29.64,NE,47,0.0,0.0,35,0.04,,---,0.04,VWS V14.01,2013-05-23 00:15:00,
2013-05-22 20:20:00,61.9,34.0,29.64,NE,35,0.0,0.0,35,0.04,,---,0.04,VWS V14.01,2013-05-23 00:20:00,
2013-05-22 20:25:00,61.7,33.8,29.64,South,190,0.0,0.0,35,0.04,,---,0.04,VWS V14.01,2013-05-23 00:25:00,
2013-05-22 20:30:00,61.3,33.5,29.64,NNE,28,0.0,0.0,35,0.04,,---,0.04,VWS V14.01,2013-05-23 00:30:00,
2013-05-22 20:35:00,61.0,33.2,29.64,NNE,33,0.0,0.0,35,0.08,,---,0.08,VWS V14.01,2013-05-23 00:35:00,
2013-05-22 20:40:00,60.8,33.0,29.61,NNE,27,0.0,0.0,35,0.08,,---,0.08,VWS V14.01,2013-05-23 00:40:00,
2013-05-22 20:45:00,60.6,32.8,29.61,NNE,29,0.0,0.0,35,0.04,,---,0.08,VWS V14.01,2013-05-23 00:45:00,
2013-05-22 20:50:00,60.4,32.7,29.61,NNE,29,0.0,0.0,35,0.04,,---,0.08,VWS V14.01,2013-05-23 00:50:00,
2013-05-22 20:55:00,60.6,32.8,29.61,NNE,33,2.2,2.2,35,0.04,,---,0.08,VWS V14.01,2013-05-23 00:55:00,
2013-05-22 21:00:00,60.3,32.5,29.61,NNW,328,0.0,0.0,35,0.04,,---,0.08,VWS V14.01,2013-05-23 01:00:00,
2013-05-22 21:05:00,60.3,32.5,29.61,NE,49,0.0,0.0,35,0.04,,---,0.08,VWS V14.01,2013-05-23 01:05:00,
2013-05-22 21:10:00,60.3,32.5,29.61,NE,56,0.0,0.0,35,0.04,,---,0.08,VWS V14.01,2013-05-23 01:10:00,
2013-05-22 21:15:00,60.3,32.5,29.61,NE,56,0.0,0.0,35,0.04,,---,0.08,VWS V14.01,2013-05-23 01:15:00,
2013-05-22 21:20:00,60.3,32.5,29.61,NE,56,0.0,0.0,35,0.04,,---,0.08,VWS V14.01,2013-05-23 01:20:00,
2013-05-22 21:25:00,60.3,32.5,29.64,NE,36,0.0,0.0,35,0.04,,---,0.08,VWS V14.01,2013-05-23 01:25:00,
2013-05-22 21:30:00,60.3,32.5,29.64,NE,36,0.0,0.0,35,0.04,,---,0.08,VWS V14.01,2013-05-23 01:30:00,
2013-05-22 21:35:00,60.1,32.4,29.64,NE,36,0.0,0.0,35,0.00,,---,0.08,VWS V14.01,2013-05-23 01:35:00,
2013-05-22 21:40:00,60.1,32.4,29.67,NE,37,0.0,0.0,35,0.00,,---,0.08,VWS V14.01,2013-05-23 01:40:00,
2013-05-22 21:45:00,60.1,32.4,29.67,NE,37,0.0,0.0,35,0.00,,---,0.08,VWS V14.01,2013-05-23 01:45:00,
2013-05-22 21:50:00,60.1,32.4,29.67,NE,38,0.0,0.0,35,0.00,,---,0.08,VWS V14.01,2013-05-23 01:50:00,
2013-05-22 21:55:00,59.9,32.2,29.67,NE,38,0.0,0.0,35,0.00,,---,0.08,VWS V14.01,2013-05-23 01:55:00,
2013-05-22 22:00:00,59.9,32.2,29.67,NE,38,0.0,0.0,35,0.00,,---,0.08,VWS V14.01,2013-05-23 02:00:00,
2013-05-22 22:05:00,60.1,32.4,29.67,NE,38,0.0,0.0,35,0.00,,---,0.08,VWS V14.01,2013-05-23 02:05:00,
2013-05-22 22:10:00,60.1,32.4,29.70,NE,38,0.0,0.0,35,0.00,,---,0.08,VWS V14.01,2013-05-23 02:10:00,
2013-05-22 22:15:00,60.1,32.4,29.70,NE,38,0.0,0.0,35,0.00,,---,0.08,VWS V14.01,2013-05-23 02:15:00,
2013-05-22 22:20:00,60.1,32.4,29.70,NE,38,0.0,0.0,35,0.00,,---,0.08,VWS V14.01,2013-05-23 02:20:00,
2013-05-22 22:25:00,60.1,32.4,29.70,NE,38,0.0,0.0,35,0.00,,---,0.08,VWS V14.01,2013-05-23 02:25:00,
2013-05-22 22:30:00,60.3,32.5,29.70,NE,38,0.0,0.0,35,0.00,,---,0.08,VWS V14.01,2013-05-23 02:30:00,
2013-05-22 22:35:00,60.3,32.5,29.70,NE,38,0.0,0.0,35,0.00,,---,0.08,VWS V14.01,2013-05-23 02:35:00,
2013-05-22 22:40:00,60.4,32.7,29.70,WNW,303,0.0,0.0,35,0.00,,---,0.08,VWS V14.01,2013-05-23 02:40:00,
2013-05-22 22:45:00,60.6,32.8,29.72,WNW,303,0.0,0.0,35,0.00,,---,0.08,VWS V14.01,2013-05-23 02:45:00,
2013-05-22 22:50:00,60.6,32.8,29.72,NNE,21,0.0,0.0,35,0.00,,---,0.08,VWS V14.01,2013-05-23 02:50:00,
2013-05-22 22:55:00,60.8,33.0,29.75,NNE,21,0.0,0.0,35,0.00,,---,0.08,VWS V14.01,2013-05-23 02:55:00,
2013-05-22 23:00:00,60.6,32.8,29.75,West,272,0.0,0.0,35,0.00,,---,0.08,VWS V14.01,2013-05-23 03:00:00,
2013-05-22 23:05:00,60.6,32.8,29.75,WNW,285,0.0,0.0,35,0.00,,---,0.08,VWS V14.01,2013-05-23 03:05:00,
2013-05-22 23:10:00,60.4,32.7,29.75,WSW,247,0.0,0.0,35,0.00,,---,0.08,VWS V14.01,2013-05-23 03:10:00,
2013-05-22 23:15:00,60.3,32.5,29.75,NE,54,0.0,0.0,35,0.00,,---,0.08,VWS V14.01,2013-05-23 03:15:00,
2013-05-22 23:20:00,60.1,32.4,29.75,SSW,208,0.0,0.0,35,0.00,,---,0.08,VWS V14.01,2013-05-23 03:20:00,
2013-05-22 23:25:00,60.1,32.4,29.75,North,3,2.2,2.7,35,0.00,,---,0.08,VWS V14.01,2013-05-23 03:25:00,
2013-05-22 23:30:00,60.1,32.4,29.75,NE,54,0.0,0.0,35,0.00,,---,0.08,VWS V14.01,2013-05-23 03:30:00,
2013-05-22 23:35:00,60.1,32.4,29.75,NE,36,0.0,0.0,35,0.00,,---,0.08,VWS V14.01,2013-05-23 03:35:00,
2013-05-22 23:40:00,60.1,32.4,29.75,NNE,23,0.0,0.0,35,0.00,,---,0.08,VWS V14.01,2013-05-23 03:40:00,
2013-05-22 23:45:00,59.9,32.2,29.75,NNE,22,0.0,0.0,35,0.04,,---,0.12,VWS V14.01,2013-05-23 03:45:00,
2013-05-22 23:50:00,60.1,32.4,29.75,NNE,22,0.0,0.0,35,0.04,,---,0.12,VWS V14.01,2013-05-23 03:50:00,
2013-05-22 23:55:00,59.9,32.2,29.75,NNE,22,0.0,0.0,35,0.04,,---,0.12,VWS V14.01,2013-05-23 03:55:00,